createdAt,value
2022-10-17T00:02:11.832Z,52209.98
2022-10-17T00:04:43.787Z,52219.63
2022-10-17T00:07:15.521Z,52222.04
2022-10-17T00:09:47.401Z,52227.26
2022-10-17T00:12:19.116Z,52227.66
2022-10-17T00:14:49.331Z,52214.00
2022-10-17T00:17:20.810Z,52214.00
2022-10-17T00:19:52.451Z,52214.40
2022-10-17T00:22:24.095Z,52209.58
2022-10-17T00:24:55.785Z,52236.51
2022-10-17T00:27:27.856Z,52231.29
2022-10-17T00:29:59.723Z,52231.68
2022-10-17T00:32:29.923Z,52205.96
2022-10-17T00:35:02.720Z,52224.45
2022-10-17T00:37:34.957Z,52220.43
2022-10-17T00:40:07.451Z,52216.41
2022-10-17T00:42:39.056Z,52211.19
2022-10-17T00:45:16.458Z,52231.68
2022-10-17T00:47:49.914Z,52215.61
2022-10-17T00:50:21.856Z,52223.24
2022-10-17T00:52:54.598Z,52243.34
2022-10-17T00:55:30.101Z,52228.47
2022-10-17T00:58:02.365Z,52237.31
2022-10-17T01:00:35.961Z,52230.07
2022-10-17T01:03:08.930Z,52218.82
2022-10-17T01:05:40.449Z,52228.07
2022-10-17T01:08:12.052Z,52231.28
2022-10-17T01:10:50.186Z,52247.35
2022-10-17T01:13:25.806Z,52247.36
2022-10-17T01:16:00.980Z,52240.93
2022-10-17T01:18:37.978Z,52234.09
2022-10-17T01:21:40.939Z,52240.12
2022-10-17T01:24:49.977Z,52215.61
2022-10-17T01:27:34.234Z,52227.66
2022-10-17T01:30:25.568Z,52251.78
2022-10-17T01:32:57.758Z,52224.85
2022-10-17T01:35:31.444Z,52238.91
2022-10-17T01:38:06.959Z,52238.51
2022-10-17T01:40:39.821Z,52233.29
2022-10-17T01:43:13.043Z,52240.12
2022-10-17T01:45:46.725Z,52246.96
2022-10-17T01:48:20.446Z,52246.96
2022-10-17T01:50:52.495Z,52227.66
2022-10-17T01:53:25.898Z,52246.95
2022-10-17T01:58:35.279Z,52246.55
2022-10-17T02:01:08.233Z,52243.74
2022-10-17T02:03:39.954Z,52237.71
2022-10-17T02:06:11.903Z,52248.16
2022-10-17T02:08:47.368Z,52244.14
2022-10-17T02:11:20.281Z,52249.37
2022-10-17T02:14:00.839Z,52238.11
2022-10-17T02:16:37.261Z,52240.12
2022-10-17T02:19:32.263Z,52245.35
2022-10-17T02:22:09.860Z,52245.35
2022-10-17T02:24:43.952Z,52250.17
2022-10-17T02:27:22.047Z,52235.30
2022-10-17T02:29:57.406Z,52237.71
2022-10-17T02:32:30.559Z,52244.14
2022-10-17T02:35:03.464Z,52241.33
2022-10-17T02:37:35.100Z,52238.52
2022-10-17T02:40:08.882Z,52259.41
2022-10-17T02:42:42.421Z,52244.95
2022-10-17T02:45:14.322Z,52241.73
2022-10-17T02:47:50.115Z,52250.97
2022-10-17T02:50:21.668Z,52241.73
2022-10-17T02:52:54.612Z,52247.76
2022-10-17T02:55:29.625Z,52254.99
2022-10-17T02:58:02.407Z,52252.58
2022-10-17T03:00:34.011Z,52263.03
2022-10-17T03:03:03.928Z,52242.94
2022-10-17T03:05:36.782Z,52263.43
2022-10-17T03:08:13.043Z,52270.66
2022-10-17T03:10:44.544Z,52268.25
2022-10-17T03:13:16.065Z,52261.42
2022-10-17T03:15:47.636Z,52259.41
2022-10-17T03:18:19.044Z,52246.15
2022-10-17T03:20:51.143Z,52252.58
2022-10-17T03:23:23.484Z,52265.44
2022-10-17T03:25:53.568Z,52257.40
2022-10-17T03:28:25.270Z,52271.87
2022-10-17T03:30:57.160Z,52267.85
2022-10-17T03:33:28.945Z,52254.99
2022-10-17T03:36:00.510Z,52257.40
2022-10-17T03:38:30.653Z,52262.63
2022-10-17T03:41:02.814Z,52273.88
2022-10-17T03:43:34.548Z,52265.84
2022-10-17T03:46:06.638Z,52261.42
2022-10-17T03:48:38.658Z,52264.64
2022-10-17T03:51:09.116Z,52266.24
2022-10-17T03:53:45.505Z,52269.05
2022-10-17T03:56:18.546Z,52270.26
2022-10-17T03:58:55.255Z,52270.66
2022-10-17T04:01:27.231Z,52268.25
2022-10-17T04:03:57.663Z,52267.04
2022-10-17T04:06:31.567Z,52256.20
2022-10-17T04:09:03.767Z,52262.22
2022-10-17T04:11:45.688Z,52263.83
2022-10-17T04:14:17.421Z,52248.96
2022-10-17T04:16:49.202Z,52270.26
2022-10-17T04:19:23.862Z,52266.24
2022-10-17T04:21:55.699Z,52244.95
2022-10-17T04:24:28.117Z,52268.25
2022-10-17T04:27:23.030Z,52251.38
2022-10-17T04:29:54.735Z,52274.68
2022-10-17T04:32:29.201Z,52272.67
2022-10-17T04:35:27.377Z,52257.40
2022-10-17T04:38:04.688Z,52261.82
2022-10-17T04:40:36.770Z,52271.46
2022-10-17T04:43:08.658Z,52265.04
2022-10-17T04:45:41.339Z,52253.38
2022-10-17T04:48:11.767Z,52254.99
2022-10-17T04:50:43.759Z,52265.44
2022-10-17T04:53:32.230Z,52252.98
2022-10-17T04:56:08.531Z,52263.43
2022-10-17T04:58:40.573Z,52250.97
2022-10-17T05:01:15.421Z,52246.95
2022-10-17T05:03:47.399Z,52244.95
2022-10-17T05:06:20.682Z,52237.71
2022-10-17T05:09:01.096Z,52263.83
2022-10-17T05:11:34.019Z,52249.37
2022-10-17T05:14:06.451Z,52240.52
2022-10-17T05:16:38.282Z,52225.65
2022-10-17T05:19:10.569Z,52248.16
2022-10-17T05:21:47.206Z,52244.14
2022-10-17T05:24:19.137Z,52236.91
2022-10-17T05:26:52.798Z,52245.75
2022-10-17T05:29:25.147Z,52230.88
2022-10-17T05:34:34.149Z,52231.68
2022-10-17T05:37:05.831Z,52231.28
2022-10-17T05:39:38.521Z,52237.31
2022-10-17T05:42:11.896Z,52231.68
2022-10-17T05:44:43.482Z,52219.63
2022-10-17T05:47:15.310Z,52234.09
2022-10-17T05:49:51.531Z,52223.24
2022-10-17T05:52:29.040Z,52220.83
2022-10-17T05:55:13.007Z,52209.58
2022-10-17T05:57:44.986Z,52235.30
2022-10-17T06:00:19.485Z,52212.39
2022-10-17T06:02:55.659Z,52212.79
2022-10-17T06:05:28.641Z,52223.64
2022-10-17T06:08:02.108Z,52223.64
2022-10-17T06:10:37.039Z,52208.37
2022-10-17T06:13:08.733Z,52223.65
2022-10-17T06:15:39.476Z,52214.80
2022-10-17T06:18:13.679Z,52221.63
2022-10-17T06:20:46.212Z,52223.24
2022-10-17T06:23:19.882Z,52205.56
2022-10-17T06:26:06.621Z,52213.60
2022-10-17T06:28:38.285Z,52223.65
2022-10-17T06:31:11.055Z,52205.96
2022-10-17T06:33:42.733Z,52223.65
2022-10-17T06:36:16.216Z,52203.15
2022-10-17T06:38:49.000Z,52197.52
2022-10-17T06:41:37.395Z,52196.32
2022-10-17T06:44:14.101Z,52206.37
2022-10-17T06:47:01.805Z,52209.18
2022-10-17T06:49:34.882Z,52197.52
2022-10-17T06:52:22.839Z,52211.19
2022-10-17T06:55:21.335Z,52184.26
2022-10-17T06:58:12.534Z,52193.51
2022-10-17T07:01:04.102Z,52176.63
2022-10-17T07:03:37.885Z,52191.50
2022-10-17T07:06:11.490Z,52185.06
2022-10-17T07:08:47.530Z,52190.69
2022-10-17T07:11:23.087Z,52182.26
2022-10-17T07:13:56.795Z,52179.04
2022-10-17T07:16:28.574Z,52187.48
2022-10-17T07:19:08.599Z,52186.27
2022-10-17T07:21:43.758Z,52166.18
2022-10-17T07:24:16.887Z,52173.01
2022-10-17T07:26:52.495Z,52159.75
2022-10-17T07:29:25.116Z,52183.05
2022-10-17T07:32:10.403Z,52162.56
2022-10-17T07:34:42.948Z,52171.41
2022-10-17T07:37:15.537Z,52175.82
2022-10-17T07:39:52.934Z,52142.87
2022-10-17T07:42:24.654Z,52154.93
2022-10-17T07:44:58.628Z,52140.06
2022-10-17T07:47:36.172Z,52148.50
2022-10-17T07:50:11.727Z,52163.37
2022-10-17T07:52:44.234Z,52148.10
2022-10-17T07:55:15.668Z,52164.98
2022-10-17T07:57:47.487Z,52152.92
2022-10-17T08:00:19.539Z,52134.84
2022-10-17T08:02:50.963Z,52121.98
2022-10-17T08:05:22.625Z,52137.65
2022-10-17T08:07:55.715Z,52134.03
2022-10-17T08:10:29.647Z,52131.62
2022-10-17T08:13:01.407Z,52114.75
2022-10-17T08:15:32.899Z,52110.73
2022-10-17T08:18:04.518Z,52115.14
2022-10-17T08:20:36.003Z,52117.96
2022-10-17T08:23:07.418Z,52110.73
2022-10-17T08:25:40.862Z,52090.23
2022-10-17T08:28:12.425Z,52107.11
2022-10-17T08:30:44.208Z,52095.05
2022-10-17T08:33:14.003Z,52092.64
2022-10-17T08:35:45.537Z,52082.20
2022-10-17T08:38:20.821Z,52089.02
2022-10-17T08:40:53.667Z,52071.74
2022-10-17T08:43:35.759Z,52070.14
2022-10-17T08:46:08.651Z,52045.63
2022-10-17T08:48:46.363Z,52056.07
2022-10-17T08:51:20.035Z,52049.24
2022-10-17T08:53:56.513Z,52044.02
2022-10-17T08:56:49.290Z,52049.24
2022-10-17T08:59:23.370Z,52059.69
2022-10-17T09:01:57.835Z,52042.41
2022-10-17T09:04:57.777Z,52022.32
2022-10-17T09:07:32.843Z,52045.23
2022-10-17T09:10:10.805Z,52049.24
2022-10-17T09:12:45.609Z,52038.79
2022-10-17T09:15:33.312Z,52040.40
2022-10-17T09:18:06.674Z,52025.54
2022-10-17T09:20:40.860Z,52027.94
2022-10-17T09:23:16.906Z,52036.38
2022-10-17T09:25:49.252Z,52029.95
2022-10-17T09:28:22.893Z,52024.73
2022-10-17T09:30:57.748Z,52015.49
2022-10-17T09:33:35.119Z,52021.11
2022-10-17T09:36:15.158Z,52009.46
2022-10-17T09:38:49.307Z,52019.91
2022-10-17T09:44:19.222Z,52003.03
2022-10-17T09:47:14.532Z,52005.44
2022-10-17T09:49:48.651Z,51994.59
2022-10-17T09:52:21.328Z,52001.42
2022-10-17T09:54:54.380Z,51993.79
2022-10-17T09:57:26.892Z,52012.27
2022-10-17T10:00:05.580Z,52001.82
2022-10-17T10:02:45.079Z,52001.02
2022-10-17T10:05:20.682Z,51999.01
2022-10-17T10:08:05.198Z,52000.62
2022-10-17T10:10:36.946Z,52011.47
2022-10-17T10:13:21.865Z,51980.13
2022-10-17T10:15:53.567Z,51967.27
2022-10-17T10:18:35.993Z,51981.73
2022-10-17T10:21:12.995Z,51963.65
2022-10-17T10:23:45.537Z,51974.10
2022-10-17T10:26:25.183Z,51980.52
2022-10-17T10:28:59.545Z,51967.67
2022-10-17T10:31:33.686Z,51968.87
2022-10-17T10:34:12.992Z,51963.65
2022-10-17T10:36:59.758Z,51959.23
2022-10-17T10:39:45.497Z,51945.16
2022-10-17T10:42:30.776Z,51946.77
2022-10-17T10:45:23.712Z,51952.40
2022-10-17T10:48:02.034Z,51954.41
2022-10-17T10:50:35.320Z,51945.17
2022-10-17T10:53:17.582Z,51954.01
2022-10-17T10:55:51.872Z,51937.93
2022-10-17T10:58:43.063Z,51925.08
2022-10-17T11:01:20.567Z,51933.51
2022-10-17T11:03:58.923Z,51931.50
2022-10-17T11:06:31.821Z,51902.98
2022-10-17T11:09:21.842Z,51900.96
2022-10-17T11:12:00.994Z,51900.96
2022-10-17T11:14:41.812Z,51903.78
2022-10-17T11:17:17.679Z,51882.48
2022-10-17T11:19:53.118Z,51900.56
2022-10-17T11:22:29.344Z,51888.51
2022-10-17T11:25:02.534Z,51887.30
2022-10-17T11:27:34.449Z,51878.46
2022-10-17T11:30:06.640Z,51876.86
2022-10-17T11:32:40.678Z,51868.41
2022-10-17T11:35:18.591Z,51866.81
2022-10-17T11:37:51.545Z,51854.35
2022-10-17T11:40:27.089Z,51870.83
2022-10-17T11:43:01.076Z,51867.21
2022-10-17T11:45:35.236Z,51841.50
2022-10-17T11:48:09.163Z,51841.09
2022-10-17T11:53:36.205Z,51844.71
2022-10-17T11:56:08.238Z,51831.85
2022-10-17T11:58:41.336Z,51848.73
2022-10-17T12:01:19.040Z,51831.05
2022-10-17T12:04:03.107Z,51827.83
2022-10-17T12:06:47.360Z,51828.23
2022-10-17T12:09:22.351Z,51832.66
2022-10-17T12:11:55.333Z,51829.04
2022-10-17T12:14:43.876Z,51820.20
2022-10-17T12:17:35.731Z,51798.50
2022-10-17T12:20:35.073Z,51794.48
2022-10-17T12:23:23.359Z,51788.05
2022-10-17T12:26:01.154Z,51800.51
2022-10-17T12:28:35.758Z,51792.88
2022-10-17T12:31:10.293Z,51817.79
2022-10-17T12:33:51.607Z,51806.13
2022-10-17T12:36:42.443Z,51797.30
2022-10-17T12:39:49.884Z,51808.55
2022-10-17T12:42:41.893Z,51795.29
2022-10-17T12:45:44.279Z,51788.86
2022-10-17T12:48:14.395Z,51802.12
2022-10-17T12:54:00.621Z,51797.70
2022-10-17T12:56:40.519Z,51798.10
2022-10-17T12:59:15.391Z,51796.49
2022-10-17T13:01:48.993Z,51792.07
2022-10-17T13:04:21.188Z,51804.13
2022-10-17T13:06:54.597Z,51796.09
2022-10-17T13:09:29.579Z,51808.54
2022-10-17T13:12:04.614Z,51812.16
2022-10-17T13:14:36.211Z,51812.56
2022-10-17T13:17:21.448Z,51813.37
2022-10-17T13:19:53.084Z,51801.71
2022-10-17T13:22:24.378Z,51806.94
2022-10-17T13:25:07.754Z,51808.14
2022-10-17T13:27:39.354Z,51802.92
2022-10-17T13:33:23.303Z,51824.62
2022-10-17T13:36:00.428Z,51820.60
2022-10-17T13:38:35.709Z,51809.75
2022-10-17T13:41:34.686Z,51803.32
2022-10-17T13:44:09.255Z,51807.34
2022-10-17T13:46:42.352Z,51799.30
2022-10-17T13:49:19.981Z,51810.55
2022-10-17T13:51:53.614Z,51823.01
2022-10-17T13:54:35.561Z,51822.61
2022-10-17T13:57:07.786Z,51819.39
2022-10-17T13:59:42.435Z,51835.87
2022-10-17T14:02:16.964Z,51811.36
2022-10-17T14:05:15.724Z,51845.91
2022-10-17T14:08:09.373Z,51826.63
2022-10-17T14:10:35.663Z,51837.48
2022-10-17T14:13:08.426Z,51853.55
2022-10-17T14:15:41.158Z,51843.91
2022-10-17T14:18:19.165Z,51858.77
2022-10-17T14:21:32.193Z,51864.00
2022-10-17T14:23:45.966Z,51870.43
2022-10-17T14:26:19.944Z,51881.28
2022-10-17T14:28:52.824Z,51901.37
2022-10-17T14:31:30.866Z,51894.93
2022-10-17T14:34:02.706Z,51905.79
2022-10-17T14:36:33.521Z,51921.86
2022-10-17T14:39:05.197Z,51933.51
2022-10-17T14:41:42.938Z,51923.87
2022-10-17T14:44:21.727Z,51933.91
2022-10-17T14:46:56.064Z,51952.80
2022-10-17T14:49:36.033Z,51964.86
2022-10-17T14:52:29.979Z,51951.59
2022-10-17T14:55:02.539Z,51954.01
2022-10-17T14:57:44.399Z,51976.91
2022-10-17T15:00:16.883Z,51979.32
2022-10-17T15:02:48.816Z,51976.11
2022-10-17T15:05:21.299Z,51983.34
2022-10-17T15:07:53.511Z,51990.98
2022-10-17T15:10:35.377Z,51982.54
2022-10-17T15:15:56.711Z,51997.00
2022-10-17T15:18:28.281Z,52000.62
2022-10-17T15:21:05.272Z,51994.19
2022-10-17T15:23:52.472Z,52005.04
2022-10-17T15:26:26.023Z,52024.33
2022-10-17T15:28:57.592Z,52031.56
2022-10-17T15:31:29.027Z,52004.23
2022-10-17T15:34:00.545Z,52031.96
2022-10-17T15:36:34.636Z,52019.10
2022-10-17T15:39:06.425Z,52009.46
2022-10-17T15:41:38.000Z,52001.43
2022-10-17T15:44:09.865Z,52011.87
2022-10-17T15:46:41.378Z,52022.32
2022-10-17T15:49:14.663Z,52029.55
2022-10-17T15:51:47.203Z,52016.70
2022-10-17T15:54:21.161Z,52030.36
2022-10-17T15:56:54.406Z,52018.30
2022-10-17T15:59:28.787Z,52027.95
2022-10-17T16:02:00.354Z,52032.77
2022-10-17T16:04:30.910Z,52029.55
2022-10-17T16:07:02.484Z,52049.24
2022-10-17T16:09:34.300Z,52043.62
2022-10-17T16:12:06.548Z,52026.34
2022-10-17T16:14:38.002Z,52034.38
2022-10-17T16:17:10.525Z,52028.75
2022-10-17T16:19:41.934Z,52048.44
2022-10-17T16:22:20.696Z,52052.86
2022-10-17T16:24:58.499Z,52055.67
2022-10-17T16:27:30.249Z,52053.66
2022-10-17T16:30:00.158Z,52069.74
2022-10-17T16:32:32.213Z,52064.51
2022-10-17T16:35:04.401Z,52058.08
2022-10-17T16:37:36.436Z,52068.93
2022-10-17T16:40:10.115Z,52050.85
2022-10-17T16:42:41.743Z,52052.05
2022-10-17T16:45:16.524Z,52074.56
2022-10-17T16:47:48.410Z,52068.53
2022-10-17T16:50:20.246Z,52080.59
2022-10-17T16:52:50.171Z,52063.30
2022-10-17T16:55:21.736Z,52074.96
2022-10-17T16:57:53.722Z,52066.92
2022-10-17T17:00:25.252Z,52080.18
2022-10-17T17:02:56.991Z,52059.69
2022-10-17T17:05:28.647Z,52074.15
2022-10-17T17:07:59.745Z,52061.70
2022-10-17T17:10:31.549Z,52081.39
2022-10-17T17:13:04.617Z,52062.10
2022-10-17T17:15:39.187Z,52068.93
2022-10-17T17:18:12.464Z,52076.57
2022-10-17T17:20:44.798Z,52087.02
2022-10-17T17:23:17.049Z,52085.01
2022-10-17T17:25:48.545Z,52072.95
2022-10-17T17:28:20.353Z,52080.19
2022-10-17T17:30:52.293Z,52065.71
2022-10-17T17:33:23.843Z,52075.76
2022-10-17T17:35:59.082Z,52088.63
2022-10-17T17:38:31.215Z,52079.38
2022-10-17T17:41:02.679Z,52097.06
2022-10-17T17:43:34.389Z,52109.12
2022-10-17T17:46:06.004Z,52086.61
2022-10-17T17:48:39.458Z,52093.04
2022-10-17T17:51:12.314Z,52118.76
2022-10-17T17:53:43.695Z,52096.26
2022-10-17T17:56:15.567Z,52107.91
2022-10-17T17:58:48.472Z,52091.84
2022-10-17T18:01:24.010Z,52089.43
2022-10-17T18:03:56.675Z,52095.86
2022-10-17T18:06:28.321Z,52103.09
2022-10-17T18:09:01.801Z,52102.29
2022-10-17T18:11:33.269Z,52105.90
2022-10-17T18:14:06.715Z,52088.63
2022-10-17T18:16:38.737Z,52105.50
2022-10-17T18:19:12.024Z,52105.10
2022-10-17T18:21:44.470Z,52118.76
2022-10-17T18:24:15.959Z,52112.33
2022-10-17T18:26:47.675Z,52111.13
2022-10-17T18:29:19.704Z,52108.72
2022-10-17T18:31:51.241Z,52112.74
2022-10-17T18:34:28.138Z,52112.73
2022-10-17T18:37:00.336Z,52109.52
2022-10-17T18:39:31.936Z,52110.32
2022-10-17T18:42:01.807Z,52119.97
2022-10-17T18:44:33.281Z,52114.74
2022-10-17T18:47:04.776Z,52100.28
2022-10-17T18:49:36.935Z,52109.12
2022-10-17T18:52:08.689Z,52126.80
2022-10-17T18:54:38.404Z,52128.41
2022-10-17T18:57:09.947Z,52128.40
2022-10-17T18:59:40.251Z,52133.63
2022-10-17T19:02:13.856Z,52118.76
2022-10-17T19:04:45.451Z,52120.37
2022-10-17T19:07:20.357Z,52146.09
2022-10-17T19:09:52.649Z,52125.19
2022-10-17T19:12:24.434Z,52122.38
2022-10-17T19:14:56.755Z,52126.40
2022-10-17T19:17:28.616Z,52137.65
2022-10-17T19:20:01.062Z,52127.20
2022-10-17T19:22:33.589Z,52134.84
2022-10-17T19:25:06.098Z,52131.62
2022-10-17T19:27:37.888Z,52130.41
2022-10-17T19:30:12.852Z,52138.85
2022-10-17T19:32:44.229Z,52113.95
2022-10-17T19:35:15.606Z,52138.05
2022-10-17T19:37:46.917Z,52139.26
2022-10-17T19:40:18.614Z,52126.80
2022-10-17T19:42:50.204Z,52123.99
2022-10-17T19:45:21.803Z,52156.94
2022-10-17T19:47:53.448Z,52116.35
2022-10-17T19:50:25.829Z,52136.04
2022-10-17T19:52:57.350Z,52140.46
2022-10-17T19:55:28.777Z,52124.39
2022-10-17T19:58:02.939Z,52117.15
2022-10-17T20:00:34.343Z,52120.77
2022-10-17T20:03:06.530Z,52146.09
2022-10-17T20:05:40.546Z,52131.62
2022-10-17T20:08:12.085Z,52142.87
2022-10-17T20:10:43.604Z,52139.26
2022-10-17T20:13:15.324Z,52132.42
2022-10-17T20:15:45.111Z,52153.73
2022-10-17T20:18:16.964Z,52135.24
2022-10-17T20:20:46.772Z,52144.48
2022-10-17T20:23:18.275Z,52134.84
2022-10-17T20:26:01.066Z,52138.85
2022-10-17T20:28:41.274Z,52139.25
2022-10-17T20:31:12.770Z,52136.85
2022-10-17T20:33:44.875Z,52125.59
2022-10-17T20:36:16.791Z,52162.57
2022-10-17T20:38:48.480Z,52162.96
2022-10-17T20:41:19.984Z,52167.79
2022-10-17T20:43:53.182Z,52157.74
2022-10-17T20:49:18.795Z,52159.75
2022-10-17T20:51:50.236Z,52164.98
2022-10-17T20:54:22.691Z,52159.35
2022-10-17T20:56:54.156Z,52150.11
2022-10-17T20:59:26.076Z,52131.22
2022-10-17T21:01:57.542Z,52150.91
2022-10-17T21:07:22.620Z,52146.49
2022-10-17T21:09:54.288Z,52142.47
2022-10-17T21:12:31.466Z,52163.77
2022-10-17T21:15:14.925Z,52149.70
2022-10-17T21:17:46.382Z,52147.29
2022-10-17T21:20:18.036Z,52158.95
2022-10-17T21:22:49.568Z,52168.19
2022-10-17T21:25:19.720Z,52168.59
2022-10-17T21:27:51.684Z,52173.41
2022-10-17T21:30:23.172Z,52157.34
2022-10-17T21:32:57.569Z,52164.57
2022-10-17T21:35:29.369Z,52163.77
2022-10-17T21:38:00.855Z,52164.17
2022-10-17T21:40:32.779Z,52176.63
2022-10-17T21:43:04.331Z,52156.94
2022-10-17T21:45:38.700Z,52167.39
2022-10-17T21:48:12.924Z,52172.61
2022-10-17T21:50:44.825Z,52166.18
2022-10-17T21:53:16.268Z,52170.60
2022-10-17T21:55:47.818Z,52166.98
2022-10-17T21:58:19.328Z,52163.77
2022-10-17T22:00:51.232Z,52166.18
2022-10-17T22:03:22.912Z,52141.67
2022-10-17T22:06:06.851Z,52167.38
2022-10-17T22:08:45.907Z,52161.76
2022-10-17T22:11:18.675Z,52162.56
2022-10-17T22:13:50.221Z,52162.16
2022-10-17T22:16:22.021Z,52176.63
2022-10-17T22:18:53.827Z,52184.26
2022-10-17T22:21:25.487Z,52168.99
2022-10-17T22:24:00.657Z,52156.54
2022-10-17T22:26:33.750Z,52180.24
2022-10-17T22:29:05.944Z,52164.98
2022-10-17T22:31:37.503Z,52183.46
2022-10-17T22:34:08.897Z,52171.81
2022-10-17T22:36:40.566Z,52188.28
2022-10-17T22:39:12.100Z,52143.68
2022-10-17T22:41:43.831Z,52175.43
2022-10-17T22:44:13.859Z,52154.13
2022-10-17T22:46:45.544Z,52171.80
2022-10-17T22:49:17.164Z,52175.82
2022-10-17T22:51:48.830Z,52171.01
2022-10-17T22:54:20.829Z,52173.82
2022-10-17T22:56:50.863Z,52175.42
2022-10-17T22:59:24.028Z,52159.35
2022-10-17T23:01:58.227Z,52187.88
2022-10-17T23:04:29.752Z,52175.02
2022-10-17T23:07:01.416Z,52185.47
2022-10-17T23:09:33.115Z,52186.27
2022-10-17T23:12:04.833Z,52169.39
2022-10-17T23:14:37.695Z,52179.84
2022-10-17T23:17:09.618Z,52189.89
2022-10-17T23:19:41.168Z,52183.05
2022-10-17T23:22:11.352Z,52170.60
2022-10-17T23:24:43.151Z,52187.88
2022-10-17T23:27:14.917Z,52184.26
2022-10-17T23:29:44.781Z,52193.51
2022-10-17T23:32:16.359Z,52189.49
2022-10-17T23:34:48.087Z,52217.62
2022-10-17T23:37:19.816Z,52193.51
2022-10-17T23:39:49.772Z,52200.74
2022-10-17T23:42:21.335Z,52191.09
2022-10-17T23:44:52.757Z,52204.76
2022-10-17T23:47:24.246Z,52199.54
2022-10-17T23:49:55.862Z,52188.68
2022-10-17T23:52:27.431Z,52197.12
2022-10-17T23:54:58.984Z,52195.91
2022-10-17T23:57:30.723Z,52186.68
